Terminal Aerodrome Forecast
Issued by NWS Tulsa, OK

Home | Current Version | Previous Version | Text Only | Print | Product List | Glossary On
Versions: 1 2 3 4 5 6 7 8 9 10 11 12 13 14 15 16 17 18
000
FTUS44 KTSA 171700
TAFFSM
TAF
KFSM 171729Z 1718/1818 07004KT P6SM -RA OVC050
      TEMPO 1720/1724 2SM TSRA BKN030CB
     FM180600 07010KT 5SM BR OVC015
     FM180900 07008KT 4SM BR OVC007
     FM181200 07006KT 4SM BR OVC004=

USA.gov is the U.S. government's official web portal to all federal, state and local government web resources and services.